メインページ
METAR-TAF:

METAR-TAF

空港 :

バトルクリーク, ミシガン州, アメリカ合衆国

緯度: 42-18-45N, 経度: 085-14-27W, 海抜: 290m

現時点の気象観測

当レポートは55分前の10:53(UTC)に作成
南西の風 3kt
気温 -10°C
湿度 79%
気圧 1026 hPa
視程: 16.1km
晴天

METAR: KBTL 231053Z AUTO 23003KT 10SM CLR M10/M13 A3029 RMK AO2 SLP275 T11001133

時間: 06:48 (11:48 UTC)

予報

当レポートは6時間8分前の05:40(UTC)に作成
予報は23日の 06時(UTC)から 24日の 06時(UTC)まで有効
の風 6kt
視程: 10km
高度3500ftの曇り
23日の 1600時(UTC)から
西/南西の風 7kt
視程: 10km
高度4000ftの千切れ雲あり
23日の 2100時(UTC)から
の風 4kt
視程: 10km
高度25000ftの曇り

TAF: KBTL 230540Z 2306/2406 35006KT P6SM OVC035 FM231600 24007KT P6SM BKN040 FM232100 19004KT P6SM OVC250

4,000以上の空港の気象観測と天気予報(METAR報とTAF報)

利用可能な観測所は地図上に黄色い丸と赤い丸で示す。

丸の上にカーソルを重ねると観測所名を参照できる。

次にクリックすると気象観測と天気予報を参照できる。

マップの切り替え:黒色「×」印の緑ボタンをクリックして拡大、「-」印の緑ボタンをクリックして縮小、緑色の三角印をクリックして隣りの地図に切り替え


METAR-TAF: